createdAt,value
2018-01-12T00:01:36.019Z,56.10
2018-01-12T00:04:03.512Z,50.67
2018-01-12T00:06:31.745Z,55.23
2018-01-12T00:08:59.239Z,53.63
2018-01-12T00:11:27.535Z,54.03
2018-01-12T00:13:55.028Z,52.33
2018-01-12T00:16:22.488Z,50.70
2018-01-12T00:18:49.973Z,52.70
2018-01-12T00:21:17.450Z,53.10
2018-01-12T00:23:45.701Z,54.40
2018-01-12T00:26:13.165Z,55.47
2018-01-12T00:28:41.579Z,53.90
2018-01-12T00:31:09.060Z,56.10
2018-01-12T00:33:36.539Z,50.73
2018-01-12T00:36:04.055Z,60.33
2018-01-12T00:38:31.544Z,57.10
2018-01-12T00:40:59.032Z,45.20
2018-01-12T00:43:27.279Z,52.60
2018-01-12T00:45:54.822Z,56.27
2018-01-12T00:48:22.290Z,53.57
2018-01-12T00:50:49.768Z,48.77
2018-01-12T00:53:18.022Z,54.33
2018-01-12T00:55:45.538Z,52.10
2018-01-12T00:58:13.020Z,51.90
2018-01-12T01:00:40.501Z,49.97
2018-01-12T01:03:08.013Z,52.20
2018-01-12T01:05:35.490Z,55.10
2018-01-12T01:08:02.973Z,52.60
2018-01-12T01:10:30.537Z,52.30
2018-01-12T01:12:58.813Z,58.90
2018-01-12T01:15:26.275Z,49.13
2018-01-12T01:17:54.549Z,50.70
2018-01-12T01:20:22.802Z,53.27
2018-01-12T01:22:50.283Z,57.63
2018-01-12T01:25:18.565Z,52.00
2018-01-12T01:27:46.802Z,56.27
2018-01-12T01:30:14.290Z,55.40
2018-01-12T01:32:42.573Z,52.90
2018-01-12T01:35:10.091Z,56.70
2018-01-12T01:37:37.572Z,57.73
2018-01-12T01:40:05.839Z,58.07
2018-01-12T01:42:33.295Z,56.77
2018-01-12T01:45:01.556Z,55.53
2018-01-12T01:47:29.031Z,64.40
2018-01-12T01:49:56.522Z,57.97
2018-01-12T01:52:23.991Z,52.67
2018-01-12T01:54:51.476Z,57.63
2018-01-12T01:57:19.014Z,61.13
2018-01-12T01:59:46.500Z,58.23
2018-01-12T02:02:14.751Z,57.53
2018-01-12T02:04:42.226Z,56.13
2018-01-12T02:07:10.483Z,55.60
2018-01-12T02:09:37.954Z,58.30
2018-01-12T02:12:05.449Z,60.50
2018-01-12T02:14:32.932Z,53.17
2018-01-12T02:17:00.440Z,59.77
2018-01-12T02:19:27.937Z,54.53
2018-01-12T02:21:55.446Z,59.03
2018-01-12T02:24:22.930Z,65.77
2018-01-12T02:26:50.406Z,60.43
2018-01-12T02:29:17.892Z,63.73
2018-01-12T02:31:45.375Z,62.03
2018-01-12T02:34:13.634Z,68.83
2018-01-12T02:36:42.633Z,57.20
2018-01-12T02:39:10.865Z,63.10
2018-01-12T02:41:38.343Z,59.67
2018-01-12T02:44:05.832Z,62.33
2018-01-12T02:46:34.075Z,58.47
2018-01-12T02:49:01.561Z,64.10
2018-01-12T02:51:29.834Z,59.40
2018-01-12T02:53:57.309Z,61.90
2018-01-12T02:56:24.807Z,57.23
2018-01-12T02:58:52.278Z,62.97
2018-01-12T03:01:19.759Z,65.97
2018-01-12T03:03:47.982Z,57.80
2018-01-12T03:06:15.499Z,57.60
2018-01-12T03:08:42.986Z,61.47
2018-01-12T03:11:10.474Z,59.17
2018-01-12T03:13:37.945Z,59.27
2018-01-12T03:16:05.421Z,59.77
2018-01-12T03:18:33.682Z,59.93
2018-01-12T03:21:01.942Z,62.13
2018-01-12T03:23:29.424Z,73.10
2018-01-12T03:25:57.693Z,60.63
2018-01-12T03:28:25.946Z,65.17
2018-01-12T03:30:53.457Z,71.03
2018-01-12T03:33:20.933Z,68.77
2018-01-12T03:35:48.416Z,77.57
2018-01-12T03:38:15.904Z,72.70
2018-01-12T03:40:43.385Z,76.03
2018-01-12T03:43:10.908Z,73.63
2018-01-12T03:45:39.143Z,79.07
2018-01-12T03:48:06.651Z,69.60
2018-01-12T03:50:34.218Z,72.93
2018-01-12T03:53:01.743Z,77.13
2018-01-12T03:55:29.974Z,76.70
2018-01-12T03:57:57.463Z,77.47
2018-01-12T04:00:24.958Z,80.07
2018-01-12T04:02:52.433Z,82.53
2018-01-12T04:05:19.957Z,84.33
2018-01-12T04:07:47.437Z,86.77
2018-01-12T04:10:14.926Z,85.43
2018-01-12T04:12:42.415Z,91.10
2018-01-12T04:15:10.682Z,90.10
2018-01-12T04:17:38.925Z,99.37
2018-01-12T04:20:06.418Z,89.27
2018-01-12T04:22:34.669Z,101.53
2018-01-12T04:25:02.160Z,90.43
2018-01-12T04:27:30.402Z,97.67
2018-01-12T04:29:57.894Z,104.73
2018-01-12T04:32:25.372Z,91.83
2018-01-12T04:34:52.862Z,99.20
2018-01-12T04:37:20.359Z,86.33
2018-01-12T04:39:48.597Z,96.13
2018-01-12T04:42:16.075Z,99.23
2018-01-12T04:44:44.302Z,93.30
2018-01-12T04:47:11.795Z,92.07
2018-01-12T04:49:39.266Z,100.20
2018-01-12T04:52:07.513Z,102.27
2018-01-12T04:54:35.071Z,95.87
2018-01-12T04:57:02.599Z,102.07
2018-01-12T04:59:30.102Z,97.03
2018-01-12T05:01:58.346Z,96.40
2018-01-12T05:04:25.836Z,97.63
2018-01-12T05:06:54.089Z,94.00
2018-01-12T05:09:21.569Z,99.20
2018-01-12T05:11:49.819Z,93.53
2018-01-12T05:14:17.310Z,96.17
2018-01-12T05:16:44.792Z,96.13
2018-01-12T05:19:12.291Z,96.27
2018-01-12T05:21:39.771Z,86.23
2018-01-12T05:24:08.328Z,86.07
2018-01-12T05:26:37.302Z,81.73
2018-01-12T05:29:04.803Z,88.23
2018-01-12T05:31:33.273Z,90.90
2018-01-12T05:34:01.521Z,98.63
2018-01-12T05:36:29.146Z,93.97
2018-01-12T05:38:56.811Z,85.20
2018-01-12T05:41:24.315Z,91.17
2018-01-12T05:43:52.552Z,86.80
2018-01-12T05:46:20.054Z,88.27
2018-01-12T05:48:48.280Z,80.43
2018-01-12T05:51:15.789Z,80.10
2018-01-12T05:53:44.044Z,82.70
2018-01-12T05:56:12.336Z,81.23
2018-01-12T05:58:39.850Z,82.67
2018-01-12T06:01:19.288Z,76.77
2018-01-12T06:03:58.632Z,74.90
2018-01-12T06:06:26.126Z,76.17
2018-01-12T06:08:54.370Z,73.90
2018-01-12T06:11:21.844Z,74.33
2018-01-12T06:13:50.105Z,77.40
2018-01-12T06:16:17.580Z,83.90
2018-01-12T06:18:45.874Z,74.37
2018-01-12T06:21:13.337Z,80.37
2018-01-12T06:23:40.892Z,99.23
2018-01-12T06:26:08.525Z,79.80
2018-01-12T06:28:36.777Z,81.07
2018-01-12T06:31:04.282Z,91.53
2018-01-12T06:33:31.762Z,89.93
2018-01-12T06:35:59.244Z,88.43
2018-01-12T06:38:26.745Z,91.87
2018-01-12T06:40:54.250Z,88.87
2018-01-12T06:43:21.730Z,84.73
2018-01-12T06:45:49.212Z,89.73
2018-01-12T06:48:16.712Z,86.93
2018-01-12T06:50:44.199Z,96.83
2018-01-12T06:53:12.443Z,82.30
2018-01-12T06:55:39.935Z,86.70
2018-01-12T06:58:08.222Z,86.17
2018-01-12T07:00:35.689Z,91.33
2018-01-12T07:03:03.316Z,70.07
2018-01-12T07:05:30.814Z,80.10
2018-01-12T07:07:58.290Z,76.10
2018-01-12T07:10:25.759Z,80.07
2018-01-12T07:12:53.247Z,79.07
2018-01-12T07:15:21.494Z,74.83
2018-01-12T07:17:49.000Z,70.03
2018-01-12T07:20:42.956Z,70.33
2018-01-12T07:23:23.053Z,72.33
2018-01-12T07:25:50.557Z,69.10
2018-01-12T07:28:18.825Z,67.77
2018-01-12T07:30:46.289Z,70.37
2018-01-12T07:33:14.545Z,68.77
2018-01-12T07:35:42.022Z,62.77
2018-01-12T07:38:10.277Z,65.60
2018-01-12T07:40:37.750Z,71.03
2018-01-12T07:43:05.993Z,74.70
2018-01-12T07:45:33.493Z,83.20
2018-01-12T07:48:01.767Z,81.27
2018-01-12T07:50:29.245Z,73.03
2018-01-12T07:53:02.541Z,71.90
2018-01-12T07:55:30.032Z,78.60
2018-01-12T07:57:57.490Z,73.47
2018-01-12T08:00:30.810Z,78.83
2018-01-12T08:03:04.079Z,79.97
2018-01-12T08:05:31.576Z,78.93
2018-01-12T08:07:59.042Z,73.40
2018-01-12T08:10:26.543Z,76.40
2018-01-12T08:12:54.032Z,103.57
2018-01-12T08:15:21.515Z,87.47
2018-01-12T08:17:48.998Z,85.83
2018-01-12T08:20:16.499Z,93.10
2018-01-12T08:22:44.793Z,94.93
2018-01-12T08:25:12.265Z,109.23
2018-01-12T08:27:39.738Z,104.77
2018-01-12T08:30:07.239Z,100.77
2018-01-12T08:32:35.503Z,103.63
2018-01-12T08:35:03.734Z,117.27
2018-01-12T08:37:31.238Z,122.90
2018-01-12T08:39:59.497Z,123.20
2018-01-12T08:42:26.992Z,117.87
2018-01-12T08:44:54.493Z,129.30
2018-01-12T08:47:22.300Z,133.33
2018-01-12T08:49:49.797Z,144.50
2018-01-12T08:52:17.298Z,129.50
2018-01-12T08:54:44.776Z,148.77
2018-01-12T08:57:12.524Z,151.63
2018-01-12T08:59:40.824Z,153.47
2018-01-12T09:02:08.302Z,154.90
2018-01-12T09:04:35.790Z,141.33
2018-01-12T09:07:03.270Z,140.17
2018-01-12T09:09:31.522Z,128.93
2018-01-12T09:11:59.754Z,150.70
2018-01-12T09:14:39.241Z,141.77
2018-01-12T09:17:07.486Z,123.77
2018-01-12T09:22:48.382Z,135.60
2018-01-12T09:25:26.149Z,132.30
2018-01-12T09:27:53.667Z,147.13
2018-01-12T09:30:21.917Z,139.80
2018-01-12T09:32:49.552Z,152.07
2018-01-12T09:35:17.041Z,154.07
2018-01-12T09:37:44.522Z,155.00
2018-01-12T09:40:27.624Z,175.77
2018-01-12T09:42:55.281Z,164.10
2018-01-12T09:45:22.780Z,169.47
2018-01-12T09:48:12.173Z,168.10
2018-01-12T09:50:39.725Z,166.03
2018-01-12T09:53:07.223Z,169.87
2018-01-12T09:55:34.687Z,156.10
2018-01-12T09:58:02.956Z,144.93
2018-01-12T10:00:40.081Z,145.57
2018-01-12T10:03:07.559Z,147.30
2018-01-12T10:05:35.072Z,144.97
2018-01-12T10:08:05.361Z,154.33
2018-01-12T10:10:32.914Z,133.20
2018-01-12T10:13:00.425Z,135.10
2018-01-12T10:15:28.115Z,157.17
2018-01-12T10:17:56.353Z,140.87
2018-01-12T10:20:36.415Z,144.03
2018-01-12T10:23:03.909Z,143.33
2018-01-12T10:25:31.394Z,156.97
2018-01-12T10:27:59.777Z,142.77
2018-01-12T10:33:59.128Z,153.53
2018-01-12T10:36:40.298Z,146.90
2018-01-12T10:39:20.491Z,156.57
2018-01-12T10:41:59.769Z,162.40
2018-01-12T10:44:28.049Z,144.73
2018-01-12T10:53:05.467Z,170.13
2018-01-12T10:55:33.851Z,167.60
2018-01-12T10:58:01.330Z,182.67
2018-01-12T11:00:32.660Z,166.37
2018-01-12T11:03:00.159Z,171.57
2018-01-12T11:05:27.881Z,180.87
2018-01-12T11:07:55.348Z,177.90
2018-01-12T11:10:22.921Z,180.10
2018-01-12T11:12:50.391Z,166.57
2018-01-12T11:15:18.038Z,184.53
2018-01-12T11:17:45.666Z,189.30
2018-01-12T11:20:13.221Z,172.07
2018-01-12T11:22:40.896Z,179.40
2018-01-12T11:25:08.422Z,174.73
2018-01-12T11:27:36.721Z,184.07
2018-01-12T11:30:04.215Z,183.07
2018-01-12T11:32:31.731Z,185.07
2018-01-12T11:34:59.197Z,194.17
2018-01-12T11:37:26.685Z,179.90
2018-01-12T11:39:54.172Z,196.93
2018-01-12T11:42:22.409Z,192.93
2018-01-12T11:44:49.878Z,204.03
2018-01-12T11:47:17.376Z,189.83
2018-01-12T11:49:44.917Z,178.13
2018-01-12T11:52:13.249Z,198.67
2018-01-12T11:54:40.736Z,179.63
2018-01-12T11:57:08.975Z,179.87
2018-01-12T11:59:36.475Z,185.50
2018-01-12T12:02:04.891Z,195.27
2018-01-12T12:04:32.373Z,191.73
2018-01-12T12:06:59.850Z,194.30
2018-01-12T12:09:27.339Z,178.93
2018-01-12T12:11:55.593Z,185.30
2018-01-12T12:14:23.835Z,174.07
2018-01-12T12:16:51.320Z,194.17
2018-01-12T12:19:19.599Z,189.57
2018-01-12T12:21:47.876Z,182.20
2018-01-12T12:24:16.137Z,180.70
2018-01-12T12:26:43.612Z,194.10
2018-01-12T12:29:11.854Z,185.77
2018-01-12T12:31:39.348Z,192.83
2018-01-12T12:34:06.855Z,176.03
2018-01-12T12:36:34.359Z,171.40
2018-01-12T12:39:01.895Z,188.43
2018-01-12T12:41:29.368Z,181.03
2018-01-12T12:43:57.755Z,172.87
2018-01-12T12:46:25.976Z,201.73
2018-01-12T12:48:53.476Z,185.10
2018-01-12T12:51:21.753Z,175.20
2018-01-12T12:53:50.005Z,187.87
2018-01-12T12:56:17.509Z,208.93
2018-01-12T12:58:45.010Z,187.67
2018-01-12T13:01:12.550Z,190.53
2018-01-12T13:03:40.078Z,193.13
2018-01-12T13:06:07.619Z,187.97
2018-01-12T13:08:35.871Z,182.80
2018-01-12T13:11:04.098Z,181.03
2018-01-12T13:13:31.580Z,190.10
2018-01-12T13:16:00.700Z,203.17
2018-01-12T13:18:28.174Z,194.60
2018-01-12T13:20:55.642Z,181.93
2018-01-12T13:23:23.140Z,191.07
2018-01-12T13:25:50.621Z,196.40
2018-01-12T13:28:18.135Z,200.73
2018-01-12T13:30:45.630Z,191.40
2018-01-12T13:33:13.154Z,195.90
2018-01-12T13:35:40.631Z,188.00
2018-01-12T13:38:08.105Z,189.63
2018-01-12T13:40:36.368Z,200.20
2018-01-12T13:43:03.851Z,186.27
2018-01-12T13:45:32.132Z,192.17
2018-01-12T13:47:59.831Z,191.70
2018-01-12T13:50:27.324Z,193.97
2018-01-12T13:52:55.247Z,188.47
2018-01-12T13:55:23.537Z,191.93
2018-01-12T13:57:51.017Z,194.77
2018-01-12T14:00:18.989Z,199.67
2018-01-12T14:02:46.484Z,194.17
2018-01-12T14:05:13.976Z,190.60
2018-01-12T14:07:41.502Z,194.03
2018-01-12T14:10:08.989Z,179.10
2018-01-12T14:12:36.490Z,194.10
2018-01-12T14:15:04.732Z,191.07
2018-01-12T14:17:32.204Z,190.77
2018-01-12T14:20:00.462Z,178.97
2018-01-12T14:22:28.009Z,187.53
2018-01-12T14:24:55.568Z,188.67
2018-01-12T14:27:23.871Z,197.30
2018-01-12T14:29:52.215Z,179.57
2018-01-12T14:32:19.702Z,187.63
2018-01-12T14:34:47.953Z,180.50
2018-01-12T14:37:15.446Z,187.53
2018-01-12T14:39:42.981Z,200.03
2018-01-12T14:42:10.485Z,197.13
2018-01-12T14:44:38.056Z,200.60
2018-01-12T14:47:05.526Z,192.17
2018-01-12T14:49:33.100Z,179.87
2018-01-12T14:52:00.576Z,186.07
2018-01-12T14:54:28.884Z,182.63
2018-01-12T14:56:56.338Z,180.97
2018-01-12T14:59:23.886Z,198.00
2018-01-12T15:01:51.428Z,186.50
2018-01-12T15:04:19.668Z,197.27
2018-01-12T15:06:47.168Z,173.57
2018-01-12T15:09:14.670Z,183.93
2018-01-12T15:11:42.142Z,169.47
2018-01-12T15:14:09.654Z,172.43
2018-01-12T15:16:37.121Z,159.30
2018-01-12T15:19:04.750Z,165.07
2018-01-12T15:21:32.262Z,160.67
2018-01-12T15:26:34.440Z,158.17
2018-01-12T15:29:01.937Z,166.17
2018-01-12T15:31:30.458Z,165.63
2018-01-12T15:33:57.943Z,164.90
2018-01-12T15:36:25.566Z,168.10
2018-01-12T15:38:53.290Z,149.77
2018-01-12T15:41:21.797Z,155.40
2018-01-12T15:43:49.255Z,162.77
2018-01-12T15:46:16.749Z,153.50
2018-01-12T15:48:44.283Z,150.10
2018-01-12T15:51:11.823Z,141.53
2018-01-12T15:53:39.288Z,143.87
2018-01-12T15:56:06.782Z,163.03
2018-01-12T15:58:35.050Z,150.53
2018-01-12T16:01:02.700Z,157.40
2018-01-12T16:03:30.228Z,147.73
2018-01-12T16:05:57.793Z,158.80
2018-01-12T16:08:25.350Z,153.80
2018-01-12T16:10:52.901Z,162.90
2018-01-12T16:13:20.455Z,161.07
2018-01-12T16:15:47.918Z,155.53
2018-01-12T16:18:15.401Z,152.27
2018-01-12T16:20:42.880Z,153.37
2018-01-12T16:23:10.367Z,153.70
2018-01-12T16:25:37.881Z,190.50
2018-01-12T16:28:05.426Z,161.73
2018-01-12T16:30:32.919Z,160.83
2018-01-12T16:33:01.187Z,157.20
2018-01-12T16:35:28.654Z,151.50
2018-01-12T16:37:56.935Z,163.00
2018-01-12T16:40:25.212Z,160.27
2018-01-12T16:42:53.450Z,159.30
2018-01-12T16:45:20.970Z,160.13
2018-01-12T16:47:48.470Z,158.40
2018-01-12T16:50:15.989Z,150.13
2018-01-12T16:52:43.520Z,147.40
2018-01-12T16:55:11.857Z,150.70
2018-01-12T16:57:39.335Z,142.87
2018-01-12T17:00:07.651Z,140.37
2018-01-12T17:02:35.179Z,136.87
2018-01-12T17:05:03.795Z,158.10
2018-01-12T17:07:31.297Z,146.63
2018-01-12T17:09:58.777Z,136.57
2018-01-12T17:12:26.291Z,151.57
2018-01-12T17:14:53.788Z,150.67
2018-01-12T17:17:22.051Z,140.50
2018-01-12T17:19:50.356Z,151.23
2018-01-12T17:22:17.972Z,140.07
2018-01-12T17:24:45.488Z,139.70
2018-01-12T17:27:13.106Z,146.43
2018-01-12T17:29:41.428Z,148.57
2018-01-12T17:32:08.961Z,147.03
2018-01-12T17:34:36.519Z,149.43
2018-01-12T17:37:04.008Z,144.53
2018-01-12T17:39:31.657Z,145.03
2018-01-12T17:41:59.135Z,148.83
2018-01-12T17:44:26.651Z,156.90
2018-01-12T17:46:54.118Z,147.83
2018-01-12T17:49:21.616Z,160.00
2018-01-12T17:51:49.113Z,146.67
2018-01-12T17:54:16.799Z,149.73
2018-01-12T17:56:44.454Z,154.87
2018-01-12T17:59:12.036Z,147.83
2018-01-12T18:01:39.505Z,149.60
2018-01-12T18:04:07.803Z,145.63
2018-01-12T18:06:36.063Z,153.17
2018-01-12T18:09:03.556Z,141.77
2018-01-12T18:11:31.165Z,143.10
2018-01-12T18:13:58.681Z,168.43
2018-01-12T18:16:26.174Z,153.47
2018-01-12T18:18:53.684Z,154.60
2018-01-12T18:21:21.206Z,151.80
2018-01-12T18:23:48.708Z,150.00
2018-01-12T18:26:16.188Z,152.47
2018-01-12T18:28:43.649Z,166.07
2018-01-12T18:31:11.150Z,157.63
2018-01-12T18:33:39.569Z,158.87
2018-01-12T18:36:07.212Z,162.83
2018-01-12T18:38:34.719Z,155.23
2018-01-12T18:41:02.237Z,176.53
2018-01-12T18:43:29.775Z,155.83
2018-01-12T18:45:57.396Z,156.70
2018-01-12T18:48:24.911Z,154.83
2018-01-12T18:50:52.660Z,165.30
2018-01-12T18:53:20.275Z,158.60
2018-01-12T18:55:48.540Z,159.10
2018-01-12T18:58:16.152Z,160.83
2018-01-12T19:00:43.636Z,155.57
2018-01-12T19:03:11.105Z,153.23
2018-01-12T19:05:38.594Z,146.90
2018-01-12T19:08:06.846Z,149.40
2018-01-12T19:10:34.446Z,149.53
2018-01-12T19:13:01.921Z,148.07
2018-01-12T19:15:29.475Z,155.67
2018-01-12T19:17:57.019Z,147.60
2018-01-12T19:20:24.555Z,148.83
2018-01-12T19:22:52.781Z,132.60
2018-01-12T19:25:20.466Z,147.47
2018-01-12T19:27:47.979Z,150.50
2018-01-12T19:30:15.457Z,146.27
2018-01-12T19:32:42.924Z,138.80
2018-01-12T19:35:10.408Z,137.70
2018-01-12T19:37:38.658Z,151.23
2018-01-12T19:40:06.150Z,153.83
2018-01-12T19:42:33.936Z,140.90
2018-01-12T19:45:01.405Z,147.97
2018-01-12T19:47:29.039Z,139.93
2018-01-12T19:49:56.519Z,136.87
2018-01-12T19:52:24.136Z,146.37
2018-01-12T19:54:52.383Z,152.43
2018-01-12T19:57:19.891Z,145.50
2018-01-12T19:59:47.480Z,147.93
2018-01-12T20:02:15.103Z,152.70
2018-01-12T20:04:43.792Z,150.13
2018-01-12T20:07:11.456Z,136.00
2018-01-12T20:09:38.982Z,137.07
2018-01-12T20:12:07.695Z,150.73
2018-01-12T20:14:36.022Z,155.63
2018-01-12T20:17:04.334Z,143.03
2018-01-12T20:19:32.420Z,150.83
2018-01-12T20:21:59.907Z,154.20
2018-01-12T20:24:28.072Z,164.37
2018-01-12T20:26:56.936Z,154.37
2018-01-12T20:29:25.140Z,150.23
2018-01-12T20:31:52.876Z,152.90
2018-01-12T20:34:21.256Z,142.57
2018-01-12T20:36:49.337Z,135.80
2018-01-12T20:39:17.932Z,153.23
2018-01-12T20:41:45.866Z,149.40
2018-01-12T20:44:13.659Z,147.97
2018-01-12T20:46:41.185Z,135.83
2018-01-12T20:49:08.785Z,144.93
2018-01-12T20:51:36.325Z,136.70
2018-01-12T20:54:04.164Z,145.87
2018-01-12T20:56:31.706Z,132.33
2018-01-12T20:58:59.253Z,137.50
2018-01-12T21:01:27.660Z,148.70
2018-01-12T21:03:55.501Z,146.73
2018-01-12T21:06:24.011Z,149.97
2018-01-12T21:08:51.642Z,150.57
2018-01-12T21:11:19.328Z,137.50
2018-01-12T21:13:46.881Z,142.93
2018-01-12T21:16:15.342Z,123.63
2018-01-12T21:18:42.918Z,140.37
2018-01-12T21:21:10.476Z,145.87
2018-01-12T21:23:38.225Z,143.73
2018-01-12T21:26:05.707Z,152.17
2018-01-12T21:28:33.225Z,143.20
2018-01-12T21:31:01.816Z,151.07
2018-01-12T21:33:31.546Z,146.67
2018-01-12T21:35:59.995Z,145.37
2018-01-12T21:38:28.712Z,140.83
2018-01-12T21:40:57.498Z,157.37
2018-01-12T21:43:25.795Z,133.53
2018-01-12T21:45:53.280Z,149.30
2018-01-12T21:48:20.752Z,141.90
2018-01-12T21:50:49.040Z,133.00
2018-01-12T21:53:16.611Z,146.77
2018-01-12T21:55:44.095Z,154.10
2018-01-12T21:58:11.758Z,162.07
2018-01-12T22:00:39.248Z,147.13
2018-01-12T22:03:06.719Z,126.27
2018-01-12T22:05:35.227Z,156.67
2018-01-12T22:08:02.687Z,139.43
2018-01-12T22:10:30.533Z,139.73
2018-01-12T22:12:58.075Z,135.40
2018-01-12T22:15:25.968Z,140.10
2018-01-12T22:17:53.661Z,154.70
2018-01-12T22:20:21.276Z,134.93
2018-01-12T22:22:48.739Z,133.60
2018-01-12T22:25:16.224Z,155.27
2018-01-12T22:27:43.707Z,134.43
2018-01-12T22:30:11.170Z,140.77
2018-01-12T22:32:39.620Z,135.27
2018-01-12T22:35:07.275Z,156.67
2018-01-12T22:37:34.898Z,140.57
2018-01-12T22:40:02.384Z,144.53
2018-01-12T22:42:29.887Z,137.73
2018-01-12T22:44:58.121Z,136.27
2018-01-12T22:47:25.614Z,136.37
2018-01-12T22:49:53.865Z,145.93
2018-01-12T22:52:22.234Z,137.83
2018-01-12T22:54:49.717Z,142.47
2018-01-12T22:57:17.968Z,136.00
2018-01-12T22:59:45.467Z,139.63
2018-01-12T23:02:12.930Z,158.73
2018-01-12T23:04:40.419Z,138.07
2018-01-12T23:07:07.894Z,137.17
2018-01-12T23:09:35.394Z,147.93
2018-01-12T23:12:02.855Z,150.03
2018-01-12T23:14:30.335Z,138.00
2018-01-12T23:16:57.801Z,148.17
2018-01-12T23:19:25.351Z,154.33
2018-01-12T23:21:52.929Z,136.80
2018-01-12T23:24:20.436Z,153.03
2018-01-12T23:26:47.907Z,134.00
2018-01-12T23:29:15.399Z,153.40
2018-01-12T23:31:42.877Z,139.80
2018-01-12T23:34:11.126Z,146.70
2018-01-12T23:36:38.642Z,136.73
2018-01-12T23:39:06.114Z,135.23
2018-01-12T23:41:33.613Z,138.43
2018-01-12T23:44:01.071Z,143.23
2018-01-12T23:46:29.321Z,137.93
2018-01-12T23:48:56.805Z,143.97
2018-01-12T23:51:25.080Z,136.53
2018-01-12T23:53:53.314Z,133.03
2018-01-12T23:56:20.803Z,134.97
2018-01-12T23:58:49.045Z,128.53
